Latest Weather Observations for Roma

IDQ60801

Issued at 11:05 pm EST Wednesday 17 September 2014 (issued every 30 minutes, with the page automatically refreshed every 10 minutes)

About weather observations | Map of weather stations | Latest weather observations for QLD | Other Formats
Station Details ID: 043091 Name: ROMA AIRPORT Lat: -26.55 Lon: 148.77 Height: 307.38 m
Data from the previous 72 hours. | See also: Recent months at Roma
Date/Time
EST
Temp
°C
App
Temp
°C
Dew
Point
Rel
Hum
%
Delta-T
°C
Wind Press
QNH
hPa
Press
MSL
hPa
Rain
since 9 am
mm
Dir
 
Spd
km/h
Gust
km/h
Spd
kts
Gust
kts
17/11:00pm 13.0 10.4 -1.7 36 6.0 S 2 6 1 3 1018.9 1018.1 0.0
17/10:30pm 14.5 11.0 -1.6 33 6.6 SW 7 9 4 5 1018.7 1017.9 0.0
17/10:00pm 16.7 12.1 -1.4 29 7.7 SW 13 17 7 9 1018.7 1017.9 0.0
17/09:30pm 18.4 12.7 -0.9 27 8.4 SW 19 24 10 13 1018.3 1017.5 0.0
17/09:00pm 18.4 13.4 -0.9 27 8.4 SSW 15 19 8 10 1018.1 1017.3 0.0
17/08:30pm 19.0 12.6 -1.4 25 8.8 SSW 22 30 12 16 1017.6 1016.8 0.0
17/08:00pm 20.1 14.2 -1.1 24 9.3 SSW 20 26 11 14 1017.2 1016.4 0.0
17/07:30pm 20.8 13.6 -1.7 22 9.8 SSW 26 35 14 19 1016.7 1016.0 0.0
17/07:00pm 21.7 14.6 -1.6 21 10.3 SSW 26 33 14 18 1016.3 1015.5 0.0
17/06:30pm 22.6 15.4 -2.2 19 10.9 SSW 26 32 14 17 1015.6 1014.8 0.0
17/06:00pm 23.3 16.3 -3.1 17 11.5 SW 24 32 13 17 1015.0 1014.2 0.0
17/05:30pm 23.9 17.8 -2.6 17 11.7 SW 20 28 11 15 1014.8 1014.0 0.0
17/05:00pm 24.8 17.8 -3.6 15 12.4 WSW 24 33 13 18 1014.4 1013.6 0.0
17/04:30pm 25.9 18.5 -3.6 14 13.0 WSW 26 35 14 19 1014.2 1013.4 0.0
17/04:00pm 26.2 19.2 -3.4 14 13.1 WSW 24 35 13 19 1014.1 1013.3 0.0
17/03:30pm 26.7 19.3 -4.0 13 13.5 WSW 26 39 14 21 1014.0 1013.2 0.0
17/03:00pm 26.4 19.8 -3.2 14 13.2 W 22 33 12 18 1014.1 1013.3 0.0
17/02:30pm 26.3 19.3 -3.3 14 13.1 WSW 24 35 13 19 1014.3 1013.5 0.0
17/02:00pm 26.8 20.1 -1.1 16 12.9 W 24 32 13 17 1014.7 1013.9 0.0
17/01:30pm 25.9 20.0 -1.0 17 12.4 W 20 35 11 19 1015.0 1014.2 0.0
17/01:00pm 25.4 20.1 -0.6 18 12.0 WSW 17 32 9 17 1015.5 1014.7 0.0
17/12:30pm 25.3 19.1 0.0 19 11.8 NW 22 28 12 15 1015.9 1015.1 0.0
17/12:00pm 24.2 19.0 -0.2 20 11.3 W 17 20 9 11 1016.3 1015.5 0.0
17/11:30am 23.6 19.4 1.9 24 10.4 NW 13 22 7 12 1016.8 1016.1 0.0
17/11:00am 23.0 18.8 1.9 25 10.0 W 13 20 7 11 1017.7 1016.9 0.0
17/10:30am 22.3 18.1 1.9 26 9.7 S 13 20 7 11 1018.1 1017.3 0.0
17/10:00am 21.4 18.1 2.2 28 9.1 SSE 9 17 5 9 1018.5 1017.7 0.0
17/09:30am 21.2 17.1 2.5 29 8.9 S 13 22 7 12 1018.8 1018.0 0.0
17/09:00am 19.9 14.4 1.8 30 8.4 SSW 20 26 11 14 1018.9 1018.1 0.0
17/08:30am 19.3 13.9 2.6 33 7.9 SW 20 28 11 15 1018.8 1018.0 0.0
17/08:00am 16.7 12.2 2.0 37 6.7 SW 15 19 8 10 1018.7 1017.9 0.0
17/07:30am 14.8 10.7 2.0 42 5.7 WSW 13 17 7 9 1018.4 1017.6 0.0
17/07:00am 11.7 10.3 3.7 58 3.6 CALM 0 0 0 0 1018.0 1017.2 0.0
17/06:30am 7.1 4.4 2.6 73 1.9 NW 6 7 3 4 1017.5 1016.7 0.0
17/06:00am 5.6 3.7 0.6 70 2.0 NNE 0 0 0 0 1016.9 1016.2 0.0
17/05:30am 8.1 5.4 2.4 67 2.4 NW 6 6 3 3 1016.8 1016.1 0.0
17/05:00am 9.0 7.4 2.3 63 2.9 CALM 0 0 0 0 1016.4 1015.6 0.0
17/04:30am 8.0 6.4 2.5 68 2.3 CALM 0 0 0 0 1016.0 1015.2 0.0
17/04:00am 7.9 5.5 2.4 68 2.3 NNE 4 7 2 4 1015.9 1015.1 0.0
17/03:30am 8.4 5.7 2.8 68 2.4 N 6 9 3 5 1015.8 1015.0 0.0
17/03:00am 8.9 7.4 2.9 66 2.6 CALM 0 0 0 0 1015.7 1014.9 0.0
17/02:30am 9.5 6.9 3.0 64 2.8 NE 6 7 3 4 1015.8 1015.0 0.0
17/02:00am 10.3 7.4 2.7 59 3.3 WNW 7 9 4 5 1016.0 1015.2 0.0
17/01:30am 10.5 6.4 2.1 56 3.6 NW 13 17 7 9 1016.0 1015.2 0.0
17/01:00am 10.6 7.4 2.9 59 3.4 N 9 11 5 6 1015.9 1015.1 0.0
17/12:30am 11.0 7.8 3.1 58 3.5 N 9 11 5 6 1015.8 1015.0 0.0
17/12:00am 10.9 7.9 1.7 53 3.9 N 7 9 4 5 1015.7 1014.9 0.0
 
Date/Time
EST
Temp
°C
App
Temp
°C
Dew
Point
Rel
Hum
%
Delta-T
°C
Wind Press
QNH
hPa
Press
MSL
hPa
Rain
since 9 am
mm
Dir
 
Spd
km/h
Gust
km/h
Spd
kts
Gust
kts
16/11:30pm 12.7 9.5 2.8 51 4.4 N 9 11 5 6 1015.6 1014.8 0.0
16/11:00pm 13.4 11.9 2.9 49 4.7 CALM 0 0 0 0 1015.6 1014.8 0.0
16/10:30pm 14.1 12.2 2.7 46 5.2 N 2 6 1 3 1015.5 1014.7 0.0
16/10:00pm 15.6 12.6 1.7 39 6.2 SW 7 11 4 6 1015.2 1014.4 0.0
16/09:30pm 16.1 14.1 2.2 39 6.3 W 2 6 1 3 1015.1 1014.3 0.0
16/09:00pm 15.9 14.2 2.0 39 6.3 CALM 0 0 0 0 1014.9 1014.1 0.0
16/08:30pm 17.1 15.4 1.9 36 6.9 CALM 0 6 0 3 1014.6 1013.8 0.0
16/08:00pm 18.0 14.1 1.1 32 7.6 SW 11 13 6 7 1014.3 1013.5 0.0
16/07:30pm 19.6 15.3 1.1 29 8.5 WSW 13 13 7 7 1013.9 1013.1 0.0
16/07:00pm 22.2 17.2 1.3 25 9.8 WSW 17 20 9 11 1013.4 1012.6 0.0
16/06:30pm 22.8 17.7 0.6 23 10.3 SW 17 20 9 11 1012.8 1012.0 0.0
16/06:00pm 25.3 19.7 0.0 19 11.9 WSW 19 24 10 13 1012.4 1011.6 0.0
16/05:30pm 27.4 20.5 0.2 17 13.0 WSW 26 35 14 19 1012.0 1011.2 0.0
16/05:00pm 28.7 21.7 -0.5 15 13.9 W 26 33 14 18 1011.8 1011.0 0.0
16/04:30pm 29.6 21.8 -0.7 14 14.5 W 30 39 16 21 1011.8 1011.0 0.0
16/04:00pm 30.2 22.0 -1.2 13 14.9 W 32 46 17 25 1011.6 1010.8 0.0
16/03:30pm 30.5 22.6 1.0 15 14.6 W 32 48 17 26 1011.7 1010.9 0.0
16/03:00pm 30.0 23.8 -0.4 14 14.6 NW 22 35 12 19 1011.8 1011.0 0.0
16/02:30pm 30.5 22.2 1.9 16 14.4 WNW 35 46 19 25 1012.0 1011.2 0.0
16/02:00pm 31.0 23.7 2.3 16 14.6 WNW 30 46 16 25 1012.4 1011.6 0.0
16/01:56pm 30.3 23.4 2.5 17 14.1 WNW 28 46 15 25 1012.4 1011.6 0.0
16/01:30pm 29.6 23.4 4.3 20 13.2 W 26 44 14 24 1012.9 1012.1 0.0
16/01:00pm 29.7 22.4 4.4 20 13.2 W 32 43 17 23 1013.3 1012.5 0.0
16/12:30pm 29.7 22.8 4.4 20 13.2 WNW 30 46 16 25 1014.0 1013.2 0.0
16/12:16pm 29.3 22.3 4.0 20 13.1 WNW 30 48 16 26 1014.2 1013.4 0.0
16/12:00pm 29.5 22.8 3.5 19 13.3 WNW 28 39 15 21 1014.5 1013.7 0.0
16/11:30am 28.6 20.9 3.5 20 12.8 WNW 33 46 18 25 1014.9 1014.1 0.0
16/11:12am 28.7 22.2 4.9 22 12.4 WNW 28 48 15 26 1015.1 1014.3 0.0
16/11:00am 29.0 22.7 5.8 23 12.3 WNW 28 37 15 20 1015.4 1014.6 0.0
16/10:30am 28.1 21.0 5.6 24 11.9 NNW 32 46 17 25 1015.8 1015.0 0.0
16/10:00am 27.3 19.5 5.0 24 11.6 NNW 35 46 19 25 1016.1 1015.3 0.0
16/09:30am 26.7 20.1 6.2 27 10.8 NNW 30 43 16 23 1016.4 1015.6 0.0
16/09:00am 25.4 18.6 5.1 27 10.4 NNW 30 41 16 22 1016.4 1015.6 0.0
16/08:30am 24.0 17.3 5.4 30 9.5 NNW 30 39 16 21 1016.5 1015.7 0.0
16/08:00am 22.2 16.6 5.6 34 8.4 N 24 33 13 18 1016.3 1015.5 0.0
16/07:30am 20.4 15.2 5.6 38 7.4 N 22 30 12 16 1016.1 1015.3 0.0
16/07:00am 18.3 15.1 6.8 47 5.8 N 13 20 7 11 1015.9 1015.1 0.0
16/06:30am 15.7 11.6 6.2 53 4.7 N 17 20 9 11 1015.4 1014.6 0.0
16/06:00am 16.3 11.7 5.6 49 5.2 N 19 24 10 13 1015.2 1014.4 0.0
16/05:30am 16.1 11.9 5.7 50 5.1 NNE 17 20 9 11 1015.3 1014.5 0.0
16/05:00am 17.2 13.0 5.8 47 5.6 NNW 17 20 9 11 1015.5 1014.7 0.0
16/04:30am 17.4 13.1 5.4 45 5.9 NNW 17 20 9 11 1015.5 1014.7 0.0
16/04:00am 18.3 13.7 5.5 43 6.3 NNW 19 24 10 13 1015.3 1014.5 0.0
16/03:30am 18.4 13.8 5.6 43 6.3 NNW 19 24 10 13 1015.2 1014.4 0.0
16/03:00am 18.2 12.9 7.0 48 5.7 W 24 39 13 21 1015.6 1014.8 0.0
16/02:51am 14.7 7.6 6.3 57 4.1 W 33 44 18 24 1015.9 1015.1 0.0
16/02:30am 14.4 10.2 5.5 55 4.3 N 17 19 9 10 1014.4 1013.6 0.0
16/02:00am 14.2 10.3 5.3 55 4.3 N 15 17 8 9 1014.4 1013.6 0.0
16/01:30am 14.0 10.5 5.4 56 4.1 NNE 13 15 7 8 1014.8 1014.0 0.0
16/01:00am 14.3 10.7 5.1 54 4.4 N 13 13 7 7 1015.1 1014.3 0.0
16/12:30am 14.4 10.8 5.0 53 4.5 NNE 13 15 7 8 1015.3 1014.5 0.0
16/12:00am 14.6 10.9 4.3 50 4.8 NNE 13 15 7 8 1015.4 1014.6 0.0
 
Date/Time
EST
Temp
°C
App
Temp
°C
Dew
Point
Rel
Hum
%
Delta-T
°C
Wind Press
QNH
hPa
Press
MSL
hPa
Rain
since 9 am
mm
Dir
 
Spd
km/h
Gust
km/h
Spd
kts
Gust
kts
15/11:30pm 14.8 11.0 3.9 48 5.1 N 13 13 7 7 1015.3 1014.5 0.0
15/11:00pm 15.3 11.4 3.5 45 5.5 N 13 13 7 7 1015.2 1014.4 0.0
15/10:30pm 16.0 12.1 3.4 43 5.9 N 13 15 7 8 1015.1 1014.3 0.0
15/10:00pm 16.6 13.1 3.6 42 6.1 N 11 13 6 7 1015.3 1014.5 0.0
15/09:30pm 16.4 13.0 3.8 43 5.9 N 11 13 6 7 1015.5 1014.7 0.0
15/09:00pm 16.1 12.2 3.5 43 5.9 N 13 15 7 8 1015.4 1014.6 0.0
15/08:30pm 15.7 12.6 3.5 44 5.7 NNE 9 13 5 7 1015.3 1014.5 0.0
15/08:00pm 17.0 14.2 3.0 39 6.5 N 7 9 4 5 1015.1 1014.3 0.0
15/07:30pm 17.2 13.6 3.1 39 6.6 NNE 11 13 6 7 1015.0 1014.2 0.0
15/07:00pm 18.7 15.2 3.3 36 7.3 N 11 17 6 9 1014.8 1014.0 0.0
15/06:30pm 21.6 18.4 2.8 29 9.0 N 9 9 5 5 1014.5 1013.7 0.0
15/06:00pm 24.5 22.0 1.4 22 11.0 NW 4 6 2 3 1014.4 1013.6 0.0
15/05:30pm 25.6 22.6 2.3 22 11.4 WSW 7 9 4 5 1014.2 1013.4 0.0
15/05:00pm 27.0 23.0 0.7 18 12.6 WNW 11 15 6 8 1014.1 1013.3 0.0
15/04:30pm 27.6 24.0 0.4 17 13.0 WNW 9 17 5 9 1014.0 1013.2 0.0
15/04:00pm 28.0 24.4 0.7 17 13.2 WNW 9 17 5 9 1013.9 1013.1 0.0
15/03:30pm 28.6 23.7 -0.5 15 13.8 NNW 15 20 8 11 1014.0 1013.2 0.0
15/03:00pm 28.3 24.4 0.9 17 13.3 NW 11 20 6 11 1014.2 1013.4 0.0
15/02:30pm 27.8 23.4 0.5 17 13.1 NW 13 20 7 11 1014.4 1013.6 0.0
15/02:00pm 27.0 23.1 1.4 19 12.4 NNW 11 17 6 9 1014.7 1013.9 0.0
15/01:30pm 28.5 24.1 2.7 19 13.0 NW 15 24 8 13 1015.2 1014.4 0.0
15/01:00pm 28.5 24.6 3.4 20 12.8 W 13 20 7 11 1015.6 1014.8 0.0
15/12:30pm 27.2 24.0 3.0 21 12.1 NNE 9 13 5 7 1016.2 1015.4 0.0
15/12:00pm 27.5 22.4 3.2 21 12.2 NNW 19 26 10 14 1016.8 1016.1 0.0
15/11:30am 26.6 23.5 3.8 23 11.5 NNE 9 19 5 10 1017.4 1016.6 0.0
15/11:00am 26.6 23.2 6.1 27 10.8 NNW 13 19 7 10 1018.1 1017.3 0.0
15/10:30am 25.8 22.0 5.9 28 10.4 NW 15 22 8 12 1018.4 1017.6 0.0
15/10:00am 25.2 21.3 7.3 32 9.5 NW 17 20 9 11 1018.7 1017.9 0.0
15/09:30am 24.5 20.7 7.6 34 9.0 NNW 17 20 9 11 1019.0 1018.2 0.0
15/09:00am 22.3 18.8 8.8 42 7.3 N 17 24 9 13 1019.3 1018.5 0.0
15/08:30am 20.8 17.2 10.0 50 5.9 N 19 24 10 13 1019.4 1018.7 0.0
15/08:00am 18.2 14.5 9.5 57 4.6 N 19 24 10 13 1019.5 1018.8 0.0
15/07:30am 16.1 13.5 9.3 64 3.6 N 13 17 7 9 1019.3 1018.5 0.0
15/07:00am 12.6 9.5 7.3 70 2.6 N 13 17 7 9 1019.0 1018.2 0.0
15/06:30am 11.9 8.3 6.6 70 2.6 N 15 17 8 9 1018.7 1017.9 0.0
15/06:00am 11.6 7.9 6.1 69 2.6 N 15 15 8 8 1018.5 1017.7 0.0
15/05:30am 10.6 7.4 5.2 69 2.5 N 11 13 6 7 1018.2 1017.4 0.0
15/05:00am 10.7 7.0 4.2 64 2.9 N 13 13 7 7 1017.9 1017.1 0.0
15/04:30am 11.1 7.0 4.1 62 3.2 N 15 17 8 9 1017.6 1016.8 0.0
15/04:00am 11.5 7.8 4.3 61 3.3 N 13 15 7 8 1017.6 1016.8 0.0
15/03:30am 11.4 7.7 4.2 61 3.3 N 13 15 7 8 1017.5 1016.7 0.0
15/03:00am 10.8 6.4 4.7 66 2.8 N 17 17 9 9 1017.3 1016.5 0.0
15/02:30am 9.1 5.8 4.3 72 2.2 NNE 11 13 6 7 1017.4 1016.6 0.0
15/02:00am 9.0 5.9 3.8 70 2.3 NE 9 11 5 6 1017.6 1016.8 0.0
15/01:30am 9.6 5.9 4.4 70 2.3 NNW 13 15 7 8 1017.7 1016.9 0.0
15/01:00am 10.0 6.9 3.7 65 2.8 NE 9 13 5 7 1018.0 1017.2 0.0
15/12:30am 11.1 8.8 4.8 65 2.9 N 6 7 3 4 1018.3 1017.5 0.0
15/12:00am 11.5 9.1 5.4 66 2.9 NNE 7 9 4 5 1018.6 1017.8 0.0
 
Date/Time
EST
Temp
°C
App
Temp
°C
Dew
Point
Rel
Hum
%
Delta-T
°C
Wind Press
QNH
hPa
Press
MSL
hPa
Rain
since 9 am
mm
Dir
 
Spd
km/h
Gust
km/h
Spd
kts
Gust
kts
14/11:30pm 12.3 11.1 4.5 59 3.6 CALM 0 0 0 0 1018.9 1018.1 0.0

Other Formats:

Comma delimited format used in spreadsheet applications
http://www.bom.gov.au/fwo/IDQ60801/IDQ60801.94515.axf

JavaScript Object Notation format (JSON) in row-major order
http://www.bom.gov.au/fwo/IDQ60801/IDQ60801.94515.json